Time;durP1;ratioP1;P1;durP2;ratioP2;P2;SDS_P1;SDS_P2;PMS_P1;PMS_P2;Temp;Humidity;BMP_temperature;BMP_pressure;BME280_temperature;BME280_humidity;BME280_pressure;Samples;Min_cycle;Max_cycle;Signal;HPM_P1;HPM_P2
2021/07/31 00:00:24;;;;;;;2.53;1.25;;;18.50;99.90;;;;;;2107086;28;20131;-68
2021/07/31 00:01:25;;;;;;;6.03;1.42;;;18.60;99.90;;;;;;2106379;28;20390;-69
2021/07/31 00:02:25;;;;;;;8.88;1.95;;;18.50;99.90;;;;;;2104928;28;20028;-69
2021/07/31 00:03:26;;;;;;;2.70;1.20;;;18.50;99.90;;;;;;2105346;28;20027;-69
2021/07/31 00:04:27;;;;;;;4.57;1.40;;;18.50;99.90;;;;;;2107491;28;20494;-69
2021/07/31 00:05:27;;;;;;;5.28;1.35;;;18.50;99.90;;;;;;2107159;28;20024;-68
2021/07/31 00:06:28;;;;;;;1.23;0.80;;;18.50;99.90;;;;;;2113506;28;20043;-69
2021/07/31 00:07:28;;;;;;;4.78;1.38;;;18.50;99.90;;;;;;2110085;28;20023;-69
2021/07/31 00:08:29;;;;;;;4.05;1.50;;;18.50;99.90;;;;;;2108376;28;20542;-69
2021/07/31 00:09:29;;;;;;;6.35;1.58;;;18.50;99.90;;;;;;2106045;28;20032;-68
2021/07/31 00:10:30;;;;;;;3.17;1.15;;;18.50;99.90;;;;;;2105397;28;20028;-68
2021/07/31 00:11:30;;;;;;;7.90;1.90;;;18.50;99.90;;;;;;2104901;28;20051;-69
2021/07/31 00:12:31;;;;;;;3.88;1.05;;;18.50;99.90;;;;;;2110228;28;20068;-69
2021/07/31 00:13:31;;;;;;;6.43;1.67;;;18.50;99.90;;;;;;2113361;28;20016;-69
2021/07/31 00:14:32;;;;;;;3.85;1.20;;;18.40;99.90;;;;;;2108130;28;20031;-68
2021/07/31 00:15:32;;;;;;;5.47;1.08;;;18.40;99.90;;;;;;2105598;28;20016;-69
2021/07/31 00:16:33;;;;;;;5.65;1.40;;;18.50;99.90;;;;;;2105113;28;20031;-69
2021/07/31 00:17:34;;;;;;;2.30;0.98;;;18.40;99.90;;;;;;2105323;28;20053;-69
2021/07/31 00:18:34;;;;;;;3.95;1.40;;;18.40;99.90;;;;;;2105113;28;20426;-69
2021/07/31 00:19:35;;;;;;;4.03;1.42;;;18.50;99.90;;;;;;2105211;28;20024;-69
2021/07/31 00:20:36;;;;;;;5.15;1.67;;;18.40;99.90;;;;;;2106849;28;20028;-69
2021/07/31 00:21:37;;;;;;;5.40;1.45;;;18.50;99.90;;;;;;2109685;28;20865;-68
2021/07/31 00:22:37;;;;;;;3.25;1.20;;;18.40;99.90;;;;;;2108765;27;20020;-69
2021/07/31 00:23:38;;;;;;;6.40;1.40;;;18.40;99.90;;;;;;2110753;28;20051;-69
2021/07/31 00:24:38;;;;;;;6.57;1.55;;;18.40;99.90;;;;;;2105125;28;20031;-69
2021/07/31 00:25:39;;;;;;;5.72;1.20;;;18.40;99.90;;;;;;2105247;28;20024;-69
2021/07/31 00:26:40;;;;;;;3.83;1.50;;;18.40;99.90;;;;;;2105203;28;20173;-68
2021/07/31 00:27:40;;;;;;;3.25;1.27;;;18.40;99.90;;;;;;2105030;28;20020;-69
2021/07/31 00:28:41;;;;;;;7.47;0.82;;;18.40;99.90;;;;;;2105009;28;20051;-69
2021/07/31 00:29:41;;;;;;;3.90;1.45;;;18.40;99.90;;;;;;2105062;28;20467;-69
2021/07/31 00:30:42;;;;;;;3.33;1.15;;;18.40;99.90;;;;;;2105276;28;20049;-69
2021/07/31 00:31:42;;;;;;;4.53;1.17;;;18.40;99.90;;;;;;2106920;28;20035;-69
2021/07/31 00:32:43;;;;;;;5.72;1.73;;;18.40;99.90;;;;;;2113156;28;20067;-68
2021/07/31 00:33:44;;;;;;;4.10;1.10;;;18.40;99.90;;;;;;2100512;28;20036;-69
2021/07/31 00:34:44;;;;;;;3.13;1.20;;;18.40;99.90;;;;;;2098194;28;20020;-69
2021/07/31 00:35:45;;;;;;;2.30;1.38;;;18.40;99.90;;;;;;2105198;28;20098;-68
2021/07/31 00:36:45;;;;;;;3.42;1.30;;;18.30;99.90;;;;;;2105193;28;20135;-69
2021/07/31 00:37:46;;;;;;;4.32;1.30;;;18.40;99.90;;;;;;2105037;28;20035;-69
2021/07/31 00:38:47;;;;;;;2.95;1.17;;;18.30;99.90;;;;;;2105014;28;20391;-69
2021/07/31 00:39:47;;;;;;;5.57;1.20;;;18.40;99.90;;;;;;2104843;28;20085;-68
2021/07/31 00:40:48;;;;;;;9.48;1.50;;;18.40;99.90;;;;;;2105338;28;20777;-69
2021/07/31 00:41:48;;;;;;;3.60;1.55;;;18.40;99.90;;;;;;2110677;28;20118;-68
2021/07/31 00:42:49;;;;;;;4.25;1.40;;;18.40;99.90;;;;;;2112992;28;20185;-69
2021/07/31 00:43:50;;;;;;;3.42;1.10;;;18.40;99.90;;;;;;2113103;28;20127;-69
2021/07/31 00:44:50;;;;;;;4.72;1.23;;;18.40;99.90;;;;;;2112839;28;20032;-69
2021/07/31 00:45:51;;;;;;;5.75;1.30;;;18.40;99.90;;;;;;2113001;28;20024;-69
2021/07/31 00:46:52;;;;;;;5.50;1.42;;;18.40;99.90;;;;;;2113461;28;20424;-69
2021/07/31 00:47:53;;;;;;;5.15;1.45;;;18.40;99.90;;;;;;2112990;28;20112;-69
2021/07/31 00:48:55;;;;;;;3.22;1.35;;;18.40;99.90;;;;;;2113739;28;20015;-69
2021/07/31 00:49:57;;;;;;;5.22;1.25;;;18.40;99.90;;;;;;2105489;28;20426;-69
2021/07/31 00:50:57;;;;;;;4.97;1.40;;;18.40;99.90;;;;;;2104909;28;20023;-69
2021/07/31 00:51:58;;;;;;;3.95;1.40;;;18.40;99.90;;;;;;2103966;28;20024;-69
2021/07/31 00:52:59;;;;;;;2.80;0.98;;;18.40;99.90;;;;;;2104803;28;20028;-69
2021/07/31 00:54:00;;;;;;;3.42;1.30;;;18.40;99.90;;;;;;2105011;28;20487;-69
2021/07/31 00:55:02;;;;;;;5.07;0.95;;;18.40;99.90;;;;;;2104877;28;20028;-69
2021/07/31 00:56:03;;;;;;;5.07;1.40;;;18.40;99.90;;;;;;2103222;28;20012;-69
2021/07/31 00:57:04;;;;;;;3.25;1.17;;;18.40;99.90;;;;;;2111297;28;20024;-69
2021/07/31 00:58:05;;;;;;;2.65;1.10;;;18.50;99.90;;;;;;2112694;28;20016;-69
2021/07/31 00:59:06;;;;;;;7.68;1.52;;;18.40;99.90;;;;;;2111006;28;20031;-69
2021/07/31 01:00:08;;;;;;;2.53;1.40;;;18.40;99.90;;;;;;2104840;28;20024;-69
2021/07/31 01:01:09;;;;;;;4.00;1.60;;;18.50;99.90;;;;;;2105081;28;20107;-68
2021/07/31 01:02:09;;;;;;;3.20;1.30;;;18.50;99.90;;;;;;2105219;28;20039;-69
2021/07/31 01:03:10;;;;;;;4.20;1.50;;;18.50;99.90;;;;;;2112875;28;20024;-69
2021/07/31 01:04:10;;;;;;;3.33;1.20;;;18.50;99.90;;;;;;2113133;28;20023;-69
2021/07/31 01:05:11;;;;;;;4.53;1.35;;;18.50;99.90;;;;;;2113041;28;20077;-69
2021/07/31 01:06:12;;;;;;;8.50;1.60;;;18.50;99.90;;;;;;2113236;28;20379;-68
2021/07/31 01:07:12;;;;;;;5.93;1.45;;;18.50;99.90;;;;;;2110876;28;20027;-69
2021/07/31 01:08:13;;;;;;;4.82;1.88;;;18.50;99.90;;;;;;2104934;28;20032;-68
2021/07/31 01:09:14;;;;;;;3.55;1.33;;;18.50;99.90;;;;;;2104823;28;20483;-68
2021/07/31 01:10:15;;;;;;;3.30;1.20;;;18.50;99.90;;;;;;2104792;28;20647;-69
2021/07/31 01:11:15;;;;;;;1.88;0.88;;;18.50;99.90;;;;;;2104698;28;20035;-69
2021/07/31 01:12:16;;;;;;;2.78;0.95;;;18.50;99.90;;;;;;2105708;28;20551;-69
2021/07/31 01:13:17;;;;;;;6.57;1.65;;;18.50;99.90;;;;;;2104453;28;20392;-69
2021/07/31 01:14:18;;;;;;;4.65;1.25;;;18.50;99.90;;;;;;2104654;28;20027;-69
2021/07/31 01:15:18;;;;;;;4.93;1.25;;;18.50;99.90;;;;;;2106725;28;20103;-69
2021/07/31 01:16:19;;;;;;;4.68;1.92;;;18.50;99.90;;;;;;2113050;28;20035;-69
2021/07/31 01:17:19;;;;;;;2.38;1.20;;;18.50;99.90;;;;;;2113043;28;20492;-69
2021/07/31 01:18:20;;;;;;;4.80;1.45;;;18.50;99.90;;;;;;2113161;28;20026;-68
2021/07/31 01:19:21;;;;;;;3.17;1.20;;;18.50;99.90;;;;;;2113405;28;20483;-69
2021/07/31 01:20:23;;;;;;;2.53;1.38;;;18.50;99.90;;;;;;2112671;28;20424;-69
2021/07/31 01:21:35;;;;;;;4.07;1.50;;;18.50;99.90;;;;;;2109274;28;20128;-69
2021/07/31 01:22:36;;;;;;;5.03;1.48;;;18.50;99.90;;;;;;2096208;28;20067;-69
2021/07/31 01:23:36;;;;;;;5.20;1.30;;;18.50;99.90;;;;;;2099653;28;20019;-69
2021/07/31 01:24:37;;;;;;;4.43;1.40;;;18.50;99.90;;;;;;2104868;28;20024;-69
2021/07/31 01:25:38;;;;;;;2.85;1.02;;;18.50;99.90;;;;;;2104193;28;20081;-69
2021/07/31 01:26:41;;;;;;;2.15;1.20;;;18.50;99.90;;;;;;2104590;28;20028;-69
2021/07/31 01:27:42;;;;;;;4.75;1.40;;;18.50;99.90;;;;;;2104451;28;20425;-69
2021/07/31 01:28:43;;;;;;;5.40;1.58;;;18.60;99.90;;;;;;2104800;28;20100;-69
2021/07/31 01:29:43;;;;;;;3.80;1.40;;;18.60;99.90;;;;;;2104625;28;20435;-69
2021/07/31 01:30:44;;;;;;;3.83;1.20;;;18.60;99.90;;;;;;2104800;28;20028;-68
2021/07/31 01:31:46;;;;;;;4.25;1.58;;;18.60;99.90;;;;;;2104027;28;20063;-68
2021/07/31 01:32:46;;;;;;;4.78;1.40;;;18.60;99.90;;;;;;2104339;28;20048;-69
2021/07/31 01:33:47;;;;;;;4.10;1.40;;;18.60;99.90;;;;;;2104397;28;20475;-69
2021/07/31 01:34:47;;;;;;;5.38;1.73;;;18.60;99.90;;;;;;2104886;28;20093;-69
2021/07/31 01:35:48;;;;;;;4.88;1.23;;;18.60;99.90;;;;;;2104762;28;20154;-69
2021/07/31 01:36:48;;;;;;;4.28;1.67;;;18.60;99.90;;;;;;2104651;28;20020;-69
2021/07/31 01:37:49;;;;;;;2.22;1.00;;;18.60;99.90;;;;;;2104436;28;20668;-69
2021/07/31 01:38:49;;;;;;;8.35;1.52;;;18.60;99.90;;;;;;2104810;28;20020;-69
2021/07/31 01:39:50;;;;;;;3.58;1.10;;;18.60;99.90;;;;;;2104414;28;20024;-69
2021/07/31 01:40:50;;;;;;;2.80;1.15;;;18.60;99.90;;;;;;2104678;28;20035;-69
2021/07/31 01:41:51;;;;;;;1.98;1.10;;;18.60;99.90;;;;;;2104198;28;20020;-68
2021/07/31 01:42:51;;;;;;;3.85;1.67;;;18.60;99.90;;;;;;2104162;28;20099;-69
2021/07/31 01:43:53;;;;;;;5.55;1.60;;;18.60;99.90;;;;;;2104577;28;20028;-69
2021/07/31 01:45:04;;;;;;;8.35;1.70;;;18.60;99.90;;;;;;2104479;28;20016;-69
2021/07/31 01:46:04;;;;;;;3.65;1.30;;;18.60;99.90;;;;;;2102165;28;20024;-69
2021/07/31 01:47:05;;;;;;;3.83;1.75;;;18.60;99.90;;;;;;2104730;28;20058;-69
2021/07/31 01:48:05;;;;;;;4.03;1.40;;;18.60;99.90;;;;;;2104262;28;20387;-69
2021/07/31 01:49:06;;;;;;;4.25;1.65;;;18.60;99.90;;;;;;2111533;28;20439;-69
2021/07/31 01:50:07;;;;;;;4.03;1.38;;;18.60;99.90;;;;;;2104516;28;20039;-69
2021/07/31 01:51:08;;;;;;;4.25;1.75;;;18.60;99.90;;;;;;2104681;28;20032;-69
2021/07/31 01:52:09;;;;;;;5.07;1.55;;;18.60;99.90;;;;;;2103882;28;20062;-69
2021/07/31 01:53:09;;;;;;;5.60;1.77;;;18.60;99.90;;;;;;2110291;28;20039;-69
2021/07/31 01:54:10;;;;;;;6.93;1.80;;;18.70;99.90;;;;;;2108520;28;20484;-69
2021/07/31 01:55:11;;;;;;;5.88;1.65;;;18.70;99.90;;;;;;2104483;28;20024;-68
2021/07/31 01:56:12;;;;;;;3.95;1.58;;;18.60;99.90;;;;;;2104214;28;20130;-69
2021/07/31 01:57:13;;;;;;;3.35;1.95;;;18.60;99.90;;;;;;2104589;28;20069;-68
2021/07/31 01:58:14;;;;;;;3.53;1.90;;;18.60;99.90;;;;;;2104462;28;20103;-69
2021/07/31 01:59:16;;;;;;;5.13;1.65;;;18.60;99.90;;;;;;2104489;28;20517;-69
2021/07/31 02:00:16;;;;;;;4.45;1.67;;;18.60;99.90;;;;;;2104674;28;20365;-69
2021/07/31 02:01:17;;;;;;;5.18;1.73;;;18.60;99.90;;;;;;2105455;28;20034;-69
2021/07/31 02:02:17;;;;;;;3.55;2.13;;;18.70;99.90;;;;;;2105375;28;20127;-69
2021/07/31 02:03:18;;;;;;;4.65;1.67;;;18.70;99.90;;;;;;2105574;28;20028;-69
2021/07/31 02:04:18;;;;;;;3.30;1.73;;;18.70;99.90;;;;;;2105832;28;20444;-69
2021/07/31 02:05:19;;;;;;;5.88;1.30;;;18.70;99.90;;;;;;2106219;28;20072;-68
2021/07/31 02:06:20;;;;;;;6.35;1.65;;;18.70;99.90;;;;;;2105613;28;20032;-69
2021/07/31 02:07:20;;;;;;;3.55;1.58;;;18.70;99.90;;;;;;2105850;28;20047;-69
2021/07/31 02:08:21;;;;;;;6.35;2.05;;;18.70;99.90;;;;;;2105918;28;20476;-69
2021/07/31 02:09:22;;;;;;;5.15;1.17;;;18.70;99.90;;;;;;2105952;28;20510;-69
2021/07/31 02:10:22;;;;;;;5.88;1.38;;;18.70;99.90;;;;;;2105782;28;20093;-68
2021/07/31 02:11:23;;;;;;;5.35;1.30;;;18.70;99.90;;;;;;2105835;28;20024;-69
2021/07/31 02:12:23;;;;;;;3.92;1.35;;;18.70;99.90;;;;;;2105479;28;20074;-69
2021/07/31 02:13:24;;;;;;;1.42;1.10;;;18.70;99.90;;;;;;2105651;28;20103;-69
2021/07/31 02:14:25;;;;;;;4.68;1.45;;;18.70;99.90;;;;;;2112763;28;20433;-69
2021/07/31 02:15:25;;;;;;;4.97;1.52;;;18.70;99.90;;;;;;2114399;28;20436;-68
2021/07/31 02:16:27;;;;;;;4.53;1.25;;;18.70;99.90;;;;;;2114339;28;20673;-69
2021/07/31 02:17:27;;;;;;;4.90;1.42;;;18.70;99.90;;;;;;2114402;28;20098;-69
2021/07/31 02:18:28;;;;;;;4.20;1.60;;;18.70;99.90;;;;;;2114222;28;20027;-69
2021/07/31 02:19:30;;;;;;;2.85;1.40;;;18.70;99.90;;;;;;2112256;28;20059;-69
2021/07/31 02:20:30;;;;;;;6.93;1.45;;;18.70;99.90;;;;;;2105561;28;20119;-69
2021/07/31 02:21:31;;;;;;;4.60;1.67;;;18.70;99.90;;;;;;2105671;28;20020;-68
2021/07/31 02:22:31;;;;;;;3.13;1.13;;;18.70;99.90;;;;;;2105776;28;20024;-69
2021/07/31 02:23:32;;;;;;;4.10;1.77;;;18.70;99.90;;;;;;2105445;28;20101;-68
2021/07/31 02:24:32;;;;;;;4.95;1.90;;;18.80;99.90;;;;;;2106105;28;20031;-68
2021/07/31 02:25:33;;;;;;;3.13;1.40;;;18.70;99.90;;;;;;2105645;28;20036;-69
2021/07/31 02:26:33;;;;;;;4.57;1.30;;;18.70;99.90;;;;;;2105098;28;20060;-69
2021/07/31 02:27:34;;;;;;;5.18;1.92;;;18.70;99.90;;;;;;2104852;28;20096;-69
2021/07/31 02:28:34;;;;;;;6.85;1.80;;;18.70;99.90;;;;;;2109407;28;20085;-68
2021/07/31 02:29:35;;;;;;;5.03;1.52;;;18.70;99.90;;;;;;2113843;28;20502;-69
2021/07/31 02:30:36;;;;;;;6.65;1.70;;;18.70;99.90;;;;;;2114284;28;20108;-69
2021/07/31 02:31:36;;;;;;;3.53;1.58;;;18.70;99.90;;;;;;2112282;28;20528;-69
2021/07/31 02:32:37;;;;;;;7.18;1.80;;;18.70;99.90;;;;;;2101334;28;20039;-69
2021/07/31 02:33:39;;;;;;;6.07;1.38;;;18.70;99.90;;;;;;2108317;28;20020;-69
2021/07/31 02:34:39;;;;;;;6.82;1.83;;;18.70;99.90;;;;;;2109191;28;20020;-69
2021/07/31 02:35:40;;;;;;;3.75;1.65;;;18.70;99.90;;;;;;2107640;28;20024;-69
2021/07/31 02:36:40;;;;;;;6.78;1.50;;;18.70;99.90;;;;;;2107214;28;20073;-68
2021/07/31 02:37:41;;;;;;;5.82;1.77;;;18.70;99.90;;;;;;2107640;28;20562;-68
2021/07/31 02:38:42;;;;;;;3.92;1.40;;;18.70;99.90;;;;;;2107616;28;20052;-68
2021/07/31 02:39:42;;;;;;;4.47;1.38;;;18.70;99.90;;;;;;2107367;28;20031;-69
2021/07/31 02:40:43;;;;;;;7.60;1.77;;;18.80;99.90;;;;;;2107552;28;20456;-68
2021/07/31 02:41:43;;;;;;;4.40;1.55;;;18.80;99.90;;;;;;2106862;28;20122;-68
2021/07/31 02:42:44;;;;;;;5.00;1.70;;;18.70;99.90;;;;;;2107521;28;20032;-69
2021/07/31 02:43:44;;;;;;;5.43;1.50;;;18.80;99.90;;;;;;2115734;28;20028;-69
2021/07/31 02:44:45;;;;;;;5.05;1.73;;;18.80;99.90;;;;;;2110506;28;20120;-69
2021/07/31 02:45:45;;;;;;;4.75;1.48;;;18.80;99.90;;;;;;2107489;28;20028;-68
2021/07/31 02:46:46;;;;;;;5.60;1.98;;;18.80;99.90;;;;;;2107580;28;20039;-68
2021/07/31 02:47:46;;;;;;;3.28;1.48;;;18.70;99.90;;;;;;2107286;28;20478;-68
2021/07/31 02:48:47;;;;;;;3.85;1.88;;;18.70;99.90;;;;;;2107377;28;20499;-69
2021/07/31 02:49:48;;;;;;;7.07;1.52;;;18.70;99.90;;;;;;2107724;28;20385;-69
2021/07/31 02:50:48;;;;;;;4.32;2.17;;;18.70;99.90;;;;;;2107486;28;20026;-69
2021/07/31 02:51:49;;;;;;;6.22;2.35;;;18.70;99.90;;;;;;2106991;28;20024;-70
2021/07/31 02:52:49;;;;;;;4.38;1.42;;;18.70;99.90;;;;;;2106928;28;20039;-69
2021/07/31 02:53:50;;;;;;;6.03;1.55;;;18.70;99.90;;;;;;2107356;28;20441;-68
2021/07/31 02:54:51;;;;;;;6.65;1.80;;;18.70;99.90;;;;;;2107179;28;20024;-68
2021/07/31 02:55:51;;;;;;;11.05;1.60;;;18.70;99.90;;;;;;2107408;28;20062;-68
2021/07/31 02:56:52;;;;;;;3.90;1.40;;;18.70;99.90;;;;;;2107137;28;20376;-68
2021/07/31 02:57:52;;;;;;;5.10;1.83;;;18.70;99.90;;;;;;2112449;28;20028;-68
2021/07/31 02:58:53;;;;;;;5.72;1.95;;;18.70;99.90;;;;;;2115637;28;20103;-69
2021/07/31 02:59:53;;;;;;;8.80;1.77;;;18.60;99.90;;;;;;2115890;28;20058;-68
2021/07/31 03:00:54;;;;;;;7.05;1.90;;;18.60;99.90;;;;;;2115775;28;20019;-69
2021/07/31 03:01:54;;;;;;;3.63;1.83;;;18.60;99.90;;;;;;2114303;28;20027;-68
2021/07/31 03:02:55;;;;;;;5.20;1.20;;;18.60;99.90;;;;;;2113277;28;20514;-68
2021/07/31 03:03:55;;;;;;;6.03;2.00;;;18.60;99.90;;;;;;2115035;27;20107;-68
2021/07/31 03:04:56;;;;;;;3.55;1.48;;;18.60;99.90;;;;;;2114579;28;20107;-69
2021/07/31 03:05:58;;;;;;;5.55;1.92;;;18.60;99.90;;;;;;2114833;28;20024;-68
2021/07/31 03:06:58;;;;;;;5.15;1.92;;;18.60;99.90;;;;;;2109470;28;20491;-68
2021/07/31 03:07:59;;;;;;;4.53;1.50;;;18.60;99.90;;;;;;2106318;28;20360;-69
2021/07/31 03:08:59;;;;;;;5.35;2.08;;;18.60;99.90;;;;;;2106143;28;20023;-69
2021/07/31 03:10:00;;;;;;;3.15;1.67;;;18.60;99.90;;;;;;2106352;28;20028;-69
2021/07/31 03:11:04;;;;;;;5.85;1.70;;;18.60;99.90;;;;;;2106143;28;20027;-68
2021/07/31 03:12:04;;;;;;;2.22;1.55;;;18.60;99.90;;;;;;2106031;28;20047;-68
2021/07/31 03:13:05;;;;;;;13.15;2.55;;;18.60;99.90;;;;;;2113824;28;20531;-68
2021/07/31 03:14:06;;;;;;;5.43;2.00;;;18.60;99.90;;;;;;2113921;28;20061;-69
2021/07/31 03:15:07;;;;;;;3.78;1.67;;;18.60;99.90;;;;;;2106472;28;20027;-68
2021/07/31 03:16:07;;;;;;;3.40;1.48;;;18.60;99.90;;;;;;2106131;28;20047;-68
2021/07/31 03:17:08;;;;;;;6.22;1.77;;;18.60;99.90;;;;;;2105828;28;20822;-69
2021/07/31 03:18:08;;;;;;;6.78;2.00;;;18.60;99.90;;;;;;2105998;28;20024;-68
2021/07/31 03:19:09;;;;;;;6.30;1.90;;;18.60;99.90;;;;;;2105750;28;20024;-69
2021/07/31 03:20:11;;;;;;;2.60;1.58;;;18.60;99.90;;;;;;2106178;28;20367;-68
2021/07/31 03:21:11;;;;;;;4.85;1.75;;;18.60;99.90;;;;;;2105937;28;20030;-69
2021/07/31 03:22:12;;;;;;;7.13;1.85;;;18.60;99.90;;;;;;2105735;28;20046;-69
2021/07/31 03:23:18;;;;;;;5.70;1.70;;;18.60;99.90;;;;;;2104876;28;20028;-68
2021/07/31 03:24:19;;;;;;;6.45;1.80;;;18.60;99.90;;;;;;2105489;28;20024;-69
2021/07/31 03:25:19;;;;;;;5.90;1.52;;;18.60;99.90;;;;;;2105580;28;20059;-69
2021/07/31 03:26:20;;;;;;;4.70;1.50;;;18.60;99.90;;;;;;2105853;28;20465;-69
2021/07/31 03:27:20;;;;;;;3.88;1.35;;;18.60;99.90;;;;;;2112896;28;20024;-69
2021/07/31 03:28:21;;;;;;;11.38;2.00;;;18.60;99.90;;;;;;2114244;28;20059;-69
2021/07/31 03:29:21;;;;;;;8.40;1.98;;;18.60;99.90;;;;;;2114180;28;20455;-69
2021/07/31 03:30:22;;;;;;;4.35;1.70;;;18.60;99.90;;;;;;2114088;28;20032;-69
2021/07/31 03:31:23;;;;;;;5.28;1.52;;;18.60;99.90;;;;;;2114374;28;20089;-69
2021/07/31 03:32:23;;;;;;;5.00;2.10;;;18.60;99.90;;;;;;2114176;28;20028;-69
2021/07/31 03:33:24;;;;;;;4.88;1.55;;;18.60;99.90;;;;;;2106209;28;20020;-69
2021/07/31 03:34:24;;;;;;;6.93;2.05;;;18.60;99.90;;;;;;2097393;28;20028;-68
2021/07/31 03:35:25;;;;;;;6.07;1.65;;;18.60;99.90;;;;;;2104434;28;20030;-69
2021/07/31 03:36:25;;;;;;;5.70;1.70;;;18.60;99.90;;;;;;2105144;28;20029;-68
2021/07/31 03:37:26;;;;;;;2.45;1.15;;;18.60;99.90;;;;;;2105160;28;20403;-69
2021/07/31 03:38:26;;;;;;;7.43;1.60;;;18.60;99.90;;;;;;2105803;28;20100;-69
2021/07/31 03:39:27;;;;;;;2.60;1.58;;;18.60;99.90;;;;;;2105562;28;20543;-69
2021/07/31 03:40:27;;;;;;;6.03;1.80;;;18.60;99.90;;;;;;2105427;28;20031;-68
2021/07/31 03:41:28;;;;;;;5.03;1.50;;;18.60;99.90;;;;;;2105457;28;20149;-69
2021/07/31 03:42:29;;;;;;;3.00;1.42;;;18.60;99.90;;;;;;2105517;28;20027;-69
2021/07/31 03:43:29;;;;;;;5.80;1.50;;;18.60;99.90;;;;;;2104984;28;20020;-69
2021/07/31 03:44:30;;;;;;;7.05;2.17;;;18.60;99.90;;;;;;2105425;28;20483;-69
2021/07/31 03:45:30;;;;;;;5.07;1.65;;;18.60;99.90;;;;;;2101444;28;20337;-69
2021/07/31 03:46:31;;;;;;;6.30;2.28;;;18.60;99.90;;;;;;2105876;28;20047;-69
2021/07/31 03:47:31;;;;;;;4.25;1.90;;;18.60;99.90;;;;;;2111075;28;20024;-69
2021/07/31 03:48:32;;;;;;;4.43;1.75;;;18.60;99.90;;;;;;2108675;28;20104;-69
2021/07/31 03:49:33;;;;;;;4.45;1.60;;;18.60;99.90;;;;;;2109902;28;20024;-69
2021/07/31 03:50:39;;;;;;;4.63;1.50;;;18.60;99.90;;;;;;2105350;28;20024;-69
2021/07/31 03:51:40;;;;;;;4.43;2.00;;;18.60;99.90;;;;;;2105703;28;20024;-69
2021/07/31 03:52:40;;;;;;;6.03;1.67;;;18.60;99.90;;;;;;2104228;28;20032;-69
2021/07/31 03:53:41;;;;;;;5.25;1.58;;;18.60;99.90;;;;;;2104968;28;20536;-69
2021/07/31 03:54:41;;;;;;;4.00;1.63;;;18.60;99.90;;;;;;2105168;28;20047;-69
2021/07/31 03:55:46;;;;;;;3.05;1.85;;;18.60;99.90;;;;;;2104848;28;20099;-69
2021/07/31 03:56:47;;;;;;;4.05;1.83;;;18.60;99.90;;;;;;2106845;28;20023;-69
2021/07/31 03:57:47;;;;;;;4.45;1.63;;;18.60;99.90;;;;;;2108959;28;20090;-69
2021/07/31 03:58:49;;;;;;;5.45;1.67;;;18.50;99.90;;;;;;2110447;28;20015;-69
2021/07/31 03:59:49;;;;;;;2.95;1.40;;;18.60;99.90;;;;;;2105654;28;20111;-69
2021/07/31 04:00:50;;;;;;;3.85;2.03;;;18.60;99.90;;;;;;2105744;28;20787;-69
2021/07/31 04:01:51;;;;;;;3.95;1.52;;;18.60;99.90;;;;;;2105421;28;20028;-68
2021/07/31 04:02:51;;;;;;;5.28;1.73;;;18.50;99.90;;;;;;2104733;28;20042;-69
2021/07/31 04:03:53;;;;;;;2.45;1.55;;;18.60;99.90;;;;;;2104480;28;20119;-69
2021/07/31 04:04:53;;;;;;;6.45;1.95;;;18.60;99.90;;;;;;2104674;28;20687;-69
2021/07/31 04:05:54;;;;;;;3.17;1.58;;;18.50;99.90;;;;;;2105556;28;20488;-69
2021/07/31 04:06:58;;;;;;;3.92;1.50;;;18.60;99.90;;;;;;2105320;28;20035;-69
2021/07/31 04:07:59;;;;;;;4.25;1.52;;;18.60;99.90;;;;;;2105683;28;20024;-69
2021/07/31 04:08:59;;;;;;;5.40;1.75;;;18.60;99.90;;;;;;2105454;28;20032;-69
2021/07/31 04:10:00;;;;;;;6.85;1.90;;;18.60;99.90;;;;;;2105506;28;20047;-69
2021/07/31 04:11:03;;;;;;;3.47;1.70;;;18.60;99.90;;;;;;2105184;28;20024;-69
2021/07/31 04:12:05;;;;;;;5.75;2.15;;;18.50;99.90;;;;;;2105282;28;20459;-69
2021/07/31 04:13:05;;;;;;;4.35;1.65;;;18.50;99.90;;;;;;2104864;28;20032;-69
2021/07/31 04:14:06;;;;;;;6.15;1.70;;;18.60;99.90;;;;;;2105781;28;20031;-69
2021/07/31 04:15:09;;;;;;;4.82;1.92;;;18.60;99.90;;;;;;2105030;28;20020;-68
2021/07/31 04:16:10;;;;;;;5.68;1.70;;;18.50;99.90;;;;;;2105286;28;20020;-69
2021/07/31 04:17:13;;;;;;;5.10;2.08;;;18.50;99.90;;;;;;2105544;28;20486;-68
2021/07/31 04:18:14;;;;;;;4.97;1.90;;;18.50;99.90;;;;;;2105547;28;20016;-69
2021/07/31 04:19:15;;;;;;;3.63;1.83;;;18.60;99.90;;;;;;2105124;28;20074;-69
2021/07/31 04:20:15;;;;;;;6.85;2.03;;;18.50;99.90;;;;;;2105329;28;20040;-69
2021/07/31 04:21:16;;;;;;;5.47;1.70;;;18.60;99.90;;;;;;2105441;28;20032;-69
2021/07/31 04:22:16;;;;;;;4.82;1.95;;;18.60;99.90;;;;;;2110877;28;20024;-69
2021/07/31 04:23:17;;;;;;;3.85;1.65;;;18.60;99.90;;;;;;2113318;28;20506;-69
2021/07/31 04:24:17;;;;;;;4.75;1.58;;;18.60;99.90;;;;;;2113713;28;20035;-69
2021/07/31 04:25:18;;;;;;;5.03;1.70;;;18.60;99.90;;;;;;2113572;28;20391;-69
2021/07/31 04:26:19;;;;;;;6.13;1.90;;;18.50;99.90;;;;;;2113652;28;20031;-69
2021/07/31 04:27:20;;;;;;;5.32;1.58;;;18.60;99.90;;;;;;2113498;28;20039;-69
2021/07/31 04:28:20;;;;;;;2.50;1.70;;;18.50;99.90;;;;;;2113792;28;20044;-69
2021/07/31 04:29:21;;;;;;;3.45;1.83;;;18.50;99.90;;;;;;2113775;28;20107;-69
2021/07/31 04:30:22;;;;;;;7.30;2.00;;;18.60;99.90;;;;;;2113537;28;20102;-69
2021/07/31 04:31:22;;;;;;;4.60;1.60;;;18.50;99.90;;;;;;2113608;28;20028;-69
2021/07/31 04:32:23;;;;;;;8.18;2.72;;;18.60;99.90;;;;;;2112768;28;20550;-69
2021/07/31 04:33:23;;;;;;;4.13;1.42;;;18.50;99.90;;;;;;2105032;28;20021;-68
2021/07/31 04:34:27;;;;;;;4.35;1.80;;;18.50;99.90;;;;;;2096797;28;20040;-69
2021/07/31 04:35:28;;;;;;;5.38;1.85;;;18.50;99.90;;;;;;2104287;28;20032;-69
2021/07/31 04:36:28;;;;;;;7.72;1.67;;;18.50;99.90;;;;;;2107212;28;20158;-69
2021/07/31 04:37:29;;;;;;;2.67;1.50;;;18.50;99.90;;;;;;2113659;28;20027;-69
2021/07/31 04:38:30;;;;;;;6.07;1.85;;;18.60;99.90;;;;;;2113424;28;20094;-69
2021/07/31 04:39:32;;;;;;;7.18;1.95;;;18.50;99.90;;;;;;2113895;28;20075;-69
2021/07/31 04:40:32;;;;;;;7.18;2.05;;;18.50;99.90;;;;;;2113436;28;20024;-69
2021/07/31 04:41:34;;;;;;;5.03;2.08;;;18.50;99.90;;;;;;2104950;28;20028;-69
2021/07/31 04:42:34;;;;;;;6.80;2.55;;;18.50;99.90;;;;;;2104857;28;20028;-69
2021/07/31 04:43:35;;;;;;;4.07;1.67;;;18.50;99.90;;;;;;2105493;28;20024;-68
2021/07/31 04:44:35;;;;;;;3.47;1.50;;;18.50;99.90;;;;;;2105051;28;20515;-69
2021/07/31 04:45:36;;;;;;;2.92;1.50;;;18.50;99.90;;;;;;2104852;28;20103;-69
2021/07/31 04:46:36;;;;;;;5.07;1.90;;;18.50;99.90;;;;;;2104199;28;20499;-69
2021/07/31 04:47:38;;;;;;;7.80;1.98;;;18.50;99.90;;;;;;2104556;28;20029;-69
2021/07/31 04:48:38;;;;;;;5.38;1.80;;;18.50;99.90;;;;;;2104946;28;20024;-69
2021/07/31 04:49:39;;;;;;;5.47;2.45;;;18.50;99.90;;;;;;2104274;28;20077;-69
2021/07/31 04:50:40;;;;;;;5.68;2.10;;;18.50;99.90;;;;;;2104531;28;20027;-68
2021/07/31 04:51:40;;;;;;;9.38;2.05;;;18.50;99.90;;;;;;2104754;28;20535;-69
2021/07/31 04:52:41;;;;;;;5.05;1.92;;;18.50;99.90;;;;;;2104356;28;20054;-70
2021/07/31 04:53:41;;;;;;;5.32;2.17;;;18.50;99.90;;;;;;2105286;28;20027;-69
2021/07/31 04:54:42;;;;;;;5.30;1.70;;;18.50;99.90;;;;;;2104512;28;20488;-69
2021/07/31 04:55:43;;;;;;;5.90;2.20;;;18.40;99.90;;;;;;2104769;28;20617;-69
2021/07/31 04:56:43;;;;;;;4.18;1.83;;;18.50;99.90;;;;;;2105022;28;20059;-68
2021/07/31 04:57:44;;;;;;;7.10;2.40;;;18.50;99.90;;;;;;2104827;28;20028;-69
2021/07/31 04:58:45;;;;;;;5.38;1.85;;;18.50;99.90;;;;;;2105233;28;20489;-69
2021/07/31 04:59:45;;;;;;;4.25;2.10;;;18.50;99.90;;;;;;2104707;28;20047;-69
2021/07/31 05:00:46;;;;;;;3.90;1.80;;;18.50;99.90;;;;;;2104701;28;20020;-69
2021/07/31 05:01:47;;;;;;;4.95;2.10;;;18.50;99.90;;;;;;2104680;28;20038;-69
2021/07/31 05:02:47;;;;;;;4.97;1.90;;;18.50;99.90;;;;;;2104576;28;20024;-69
2021/07/31 05:03:48;;;;;;;3.83;1.88;;;18.50;99.90;;;;;;2105174;28;20460;-69
2021/07/31 05:04:48;;;;;;;4.57;1.92;;;18.50;99.90;;;;;;2104793;28;20468;-69
2021/07/31 05:05:49;;;;;;;5.00;1.98;;;18.50;99.90;;;;;;2104981;28;20115;-69
2021/07/31 05:06:49;;;;;;;4.15;2.00;;;18.50;99.90;;;;;;2105202;28;20476;-70
2021/07/31 05:07:50;;;;;;;6.72;1.92;;;18.50;99.90;;;;;;2104751;28;20531;-69
2021/07/31 05:08:51;;;;;;;3.47;1.58;;;18.50;99.90;;;;;;2105046;28;20017;-68
2021/07/31 05:09:51;;;;;;;5.53;1.85;;;18.50;99.90;;;;;;2104115;28;20024;-69
2021/07/31 05:10:52;;;;;;;5.07;1.88;;;18.50;99.90;;;;;;2104446;28;20144;-69
2021/07/31 05:11:52;;;;;;;3.17;1.65;;;18.50;99.90;;;;;;2104649;28;20103;-68
2021/07/31 05:12:53;;;;;;;4.40;1.88;;;18.50;99.90;;;;;;2104554;28;20101;-69
2021/07/31 05:13:53;;;;;;;12.05;2.15;;;18.50;99.90;;;;;;2104821;28;20022;-69
2021/07/31 05:14:54;;;;;;;7.90;2.30;;;18.50;99.90;;;;;;2105188;28;20071;-68
2021/07/31 05:15:55;;;;;;;7.82;3.10;;;18.50;99.90;;;;;;2104604;28;20024;-69